createdAt,value
2018-03-04T00:00:00.102Z,-1.98
2018-03-04T00:01:00.346Z,-1.84
2018-03-04T00:02:00.592Z,-1.82
2018-03-04T00:03:00.849Z,-1.96
2018-03-04T00:04:01.095Z,-1.95
2018-03-04T00:05:01.344Z,-1.93
2018-03-04T00:06:01.587Z,-1.98
2018-03-04T00:07:01.829Z,-1.99
2018-03-04T00:08:02.080Z,-2.06
2018-03-04T00:09:02.333Z,-2.02
2018-03-04T00:10:02.575Z,-2.11
2018-03-04T00:11:02.816Z,-2.06
2018-03-04T00:12:03.065Z,-2.05
2018-03-04T00:13:03.310Z,-2.06
2018-03-04T00:14:03.559Z,-2.05
2018-03-04T00:15:03.813Z,-2.16
2018-03-04T00:16:04.060Z,-2.14
2018-03-04T00:17:04.298Z,-2.18
2018-03-04T00:18:04.546Z,-2.14
2018-03-04T00:19:04.790Z,-2.23
2018-03-04T00:20:05.037Z,-2.11
2018-03-04T00:21:05.276Z,-2.13
2018-03-04T00:22:05.532Z,-2.08
2018-03-04T00:23:05.777Z,-2.10
2018-03-04T00:24:06.022Z,-2.10
2018-03-04T00:25:06.279Z,-2.06
2018-03-04T00:26:06.515Z,-2.06
2018-03-04T00:27:06.765Z,-2.06
2018-03-04T00:28:07.012Z,-2.11
2018-03-04T00:29:07.254Z,-2.11
2018-03-04T00:30:07.497Z,-2.10
2018-03-04T00:31:07.743Z,-2.14
2018-03-04T00:32:07.988Z,-2.10
2018-03-04T00:33:08.227Z,-2.11
2018-03-04T00:34:08.495Z,-2.14
2018-03-04T00:35:08.736Z,-2.11
2018-03-04T00:36:08.986Z,-2.14
2018-03-04T00:37:09.229Z,-2.24
2018-03-04T00:38:09.473Z,-2.21
2018-03-04T00:39:09.721Z,-2.23
2018-03-04T00:40:09.966Z,-2.21
2018-03-04T00:41:10.215Z,-2.23
2018-03-04T00:42:10.460Z,-2.18
2018-03-04T00:43:10.702Z,-2.21
2018-03-04T00:44:10.947Z,-2.14
2018-03-04T00:45:11.192Z,-2.18
2018-03-04T00:46:11.439Z,-2.18
2018-03-04T00:47:11.685Z,-2.21
2018-03-04T00:48:11.932Z,-2.23
2018-03-04T00:49:12.174Z,-2.16
2018-03-04T00:50:12.413Z,-2.26
2018-03-04T00:51:12.670Z,-2.17
2018-03-04T00:52:12.918Z,-2.14
2018-03-04T00:53:13.161Z,-2.11
2018-03-04T00:54:13.405Z,-2.11
2018-03-04T00:55:13.650Z,-2.14
2018-03-04T00:56:13.893Z,-2.14
2018-03-04T00:57:14.138Z,-2.14
2018-03-04T00:58:14.385Z,-2.11
2018-03-04T00:59:14.630Z,-2.11
2018-03-04T01:00:14.873Z,-2.08
2018-03-04T01:01:15.118Z,-2.08
2018-03-04T01:02:15.364Z,-2.03
2018-03-04T01:03:15.608Z,-2.03
2018-03-04T01:04:15.858Z,-2.08
2018-03-04T01:05:16.103Z,-2.08
2018-03-04T01:06:16.346Z,-2.02
2018-03-04T01:07:16.594Z,-1.95
2018-03-04T01:08:16.834Z,-2.00
2018-03-04T01:09:17.083Z,-1.96
2018-03-04T01:10:17.329Z,-1.95
2018-03-04T01:11:17.577Z,-1.90
2018-03-04T01:12:17.817Z,-1.92
2018-03-04T01:13:18.064Z,-1.95
2018-03-04T01:14:18.304Z,-1.95
2018-03-04T01:15:18.551Z,-1.88
2018-03-04T01:16:18.798Z,-1.96
2018-03-04T01:17:19.043Z,-1.90
2018-03-04T01:18:19.296Z,-1.92
2018-03-04T01:19:19.535Z,-1.95
2018-03-04T01:20:19.775Z,-1.96
2018-03-04T01:21:20.022Z,-1.90
2018-03-04T01:22:20.265Z,-1.96
2018-03-04T01:23:20.511Z,-1.92
2018-03-04T01:24:20.760Z,-1.88
2018-03-04T01:25:21.005Z,-1.98
2018-03-04T01:26:21.248Z,-1.92
2018-03-04T01:27:21.494Z,-1.95
2018-03-04T01:28:21.747Z,-1.88
2018-03-04T01:29:21.985Z,-1.95
2018-03-04T01:30:22.230Z,-1.92
2018-03-04T01:31:22.476Z,-1.95
2018-03-04T01:32:22.724Z,-1.95
2018-03-04T01:33:22.973Z,-1.99
2018-03-04T01:34:23.214Z,-1.90
2018-03-04T01:35:23.453Z,-1.98
2018-03-04T01:36:23.694Z,-1.95
2018-03-04T01:37:23.947Z,-1.98
2018-03-04T01:38:24.193Z,-1.95
2018-03-04T01:39:24.434Z,-1.87
2018-03-04T01:40:24.686Z,-1.92
2018-03-04T01:41:24.932Z,-1.92
2018-03-04T01:42:25.180Z,-1.88
2018-03-04T01:43:25.436Z,-1.90
2018-03-04T01:44:25.686Z,-1.93
2018-03-04T01:45:25.920Z,-1.93
2018-03-04T01:46:26.164Z,-1.88
2018-03-04T01:47:26.415Z,-1.90
2018-03-04T01:48:26.662Z,-1.88
2018-03-04T01:49:26.907Z,-1.92
2018-03-04T01:50:27.153Z,-1.98
2018-03-04T01:51:27.400Z,-1.92
2018-03-04T01:52:27.640Z,-1.99
2018-03-04T01:53:27.887Z,-2.00
2018-03-04T01:54:28.134Z,-2.02
2018-03-04T01:55:28.384Z,-2.00
2018-03-04T01:56:28.632Z,-2.02
2018-03-04T01:57:28.876Z,-1.95
2018-03-04T01:58:29.127Z,-1.95
2018-03-04T01:59:29.375Z,-1.95
2018-03-04T02:00:29.621Z,-2.02
2018-03-04T02:01:29.868Z,-2.02
2018-03-04T02:02:30.109Z,-1.98
2018-03-04T02:03:30.363Z,-1.92
2018-03-04T02:04:30.606Z,-1.99
2018-03-04T02:05:30.852Z,-1.99
2018-03-04T02:06:31.092Z,-2.10
2018-03-04T02:07:31.338Z,-1.93
2018-03-04T02:08:31.586Z,-1.99
2018-03-04T02:09:31.837Z,-2.02
2018-03-04T02:10:32.074Z,-2.05
2018-03-04T02:11:32.323Z,-2.13
2018-03-04T02:12:32.568Z,-2.14
2018-03-04T02:13:32.815Z,-2.24
2018-03-04T02:14:33.075Z,-2.24
2018-03-04T02:15:33.305Z,-2.21
2018-03-04T02:16:33.551Z,-2.18
2018-03-04T02:17:33.800Z,-2.26
2018-03-04T02:18:34.053Z,-2.18
2018-03-04T02:19:34.303Z,-2.14
2018-03-04T02:20:34.538Z,-2.13
2018-03-04T02:21:34.780Z,-2.10
2018-03-04T02:22:35.033Z,-2.11
2018-03-04T02:23:35.275Z,-2.13
2018-03-04T02:24:35.521Z,-2.14
2018-03-04T02:25:35.762Z,-2.08
2018-03-04T02:26:36.010Z,-2.13
2018-03-04T02:27:36.245Z,-2.20
2018-03-04T02:28:36.494Z,-2.10
2018-03-04T02:29:36.728Z,-2.05
2018-03-04T02:30:36.995Z,-2.06
2018-03-04T02:31:37.201Z,-2.13
2018-03-04T02:32:37.447Z,-2.00
2018-03-04T02:33:37.686Z,-2.08
2018-03-04T02:34:37.936Z,-2.02
2018-03-04T02:35:38.178Z,-2.06
2018-03-04T02:36:38.433Z,-2.06
2018-03-04T02:37:38.680Z,-2.03
2018-03-04T02:38:38.917Z,-2.02
2018-03-04T02:39:39.170Z,-2.08
2018-03-04T02:40:39.398Z,-1.95
2018-03-04T02:41:39.654Z,-2.06
2018-03-04T02:42:39.902Z,-2.02
2018-03-04T02:43:40.150Z,-1.95
2018-03-04T02:44:40.387Z,-1.98
2018-03-04T02:45:40.632Z,-2.00
2018-03-04T02:46:40.878Z,-1.92
2018-03-04T02:47:41.117Z,-2.02
2018-03-04T02:48:41.366Z,-2.00
2018-03-04T02:49:41.601Z,-2.06
2018-03-04T02:50:41.842Z,-2.10
2018-03-04T02:51:42.105Z,-2.11
2018-03-04T02:52:42.342Z,-2.00
2018-03-04T02:53:42.586Z,-2.05
2018-03-04T02:54:42.830Z,-1.96
2018-03-04T02:55:43.077Z,-2.00
2018-03-04T02:56:43.323Z,-2.08
2018-03-04T02:57:43.568Z,-2.06
2018-03-04T02:58:43.812Z,-2.03
2018-03-04T02:59:44.058Z,-1.93
2018-03-04T03:00:44.307Z,-1.99
2018-03-04T03:01:44.556Z,-1.92
2018-03-04T03:02:44.800Z,-1.96
2018-03-04T03:03:45.045Z,-1.95
2018-03-04T03:04:45.293Z,-1.92
2018-03-04T03:05:45.533Z,-1.92
2018-03-04T03:06:45.781Z,-1.95
2018-03-04T03:07:46.029Z,-1.92
2018-03-04T03:08:46.281Z,-2.06
2018-03-04T03:09:46.521Z,-2.03
2018-03-04T03:10:46.764Z,-2.02
2018-03-04T03:11:47.004Z,-2.11
2018-03-04T03:12:47.249Z,-2.10
2018-03-04T03:13:47.511Z,-2.10
2018-03-04T03:14:47.750Z,-2.23
2018-03-04T03:15:48.009Z,-2.23
2018-03-04T03:16:48.256Z,-2.13
2018-03-04T03:17:48.495Z,-2.05
2018-03-04T03:18:48.736Z,-1.99
2018-03-04T03:19:48.981Z,-2.03
2018-03-04T03:20:49.226Z,-2.14
2018-03-04T03:21:49.469Z,-2.02
2018-03-04T03:22:49.712Z,-1.95
2018-03-04T03:23:49.958Z,-2.03
2018-03-04T03:24:50.199Z,-1.96
2018-03-04T03:25:50.450Z,-1.88
2018-03-04T03:26:50.693Z,-1.95
2018-03-04T03:27:50.940Z,-1.87
2018-03-04T03:28:51.183Z,-1.90
2018-03-04T03:29:51.436Z,-1.80
2018-03-04T03:30:51.684Z,-1.96
2018-03-04T03:31:51.923Z,-1.87
2018-03-04T03:32:52.171Z,-1.84
2018-03-04T03:33:52.415Z,-1.87
2018-03-04T03:34:52.660Z,-1.95
2018-03-04T03:35:52.903Z,-1.95
2018-03-04T03:36:53.149Z,-1.99
2018-03-04T03:37:53.395Z,-1.96
2018-03-04T03:38:53.643Z,-1.95
2018-03-04T03:39:53.884Z,-1.90
2018-03-04T03:40:54.134Z,-1.96
2018-03-04T03:41:54.383Z,-1.93
2018-03-04T03:42:54.626Z,-1.88
2018-03-04T03:43:54.864Z,-1.88
2018-03-04T03:44:55.115Z,-1.77
2018-03-04T03:45:55.362Z,-1.88
2018-03-04T03:46:55.605Z,-1.78
2018-03-04T03:47:55.855Z,-1.78
2018-03-04T03:48:56.099Z,-1.82
2018-03-04T03:49:56.347Z,-1.88
2018-03-04T03:50:56.608Z,-1.87
2018-03-04T03:51:56.847Z,-1.74
2018-03-04T03:52:57.093Z,-1.81
2018-03-04T03:53:57.343Z,-1.80
2018-03-04T03:54:57.587Z,-1.75
2018-03-04T03:55:57.829Z,-1.82
2018-03-04T03:56:58.084Z,-1.74
2018-03-04T03:57:58.329Z,-1.82
2018-03-04T03:58:58.574Z,-1.82
2018-03-04T03:59:58.808Z,-1.80
2018-03-04T04:00:59.076Z,-1.77
2018-03-04T04:01:59.319Z,-1.78
2018-03-04T04:02:59.565Z,-1.80
2018-03-04T04:03:59.812Z,-1.85
2018-03-04T04:05:00.060Z,-1.81
2018-03-04T04:06:00.305Z,-1.82
2018-03-04T04:07:00.550Z,-1.74
2018-03-04T04:08:00.782Z,-1.80
2018-03-04T04:09:01.031Z,-1.80
2018-03-04T04:10:01.275Z,-1.81
2018-03-04T04:11:01.520Z,-1.84
2018-03-04T04:12:01.764Z,-1.85
2018-03-04T04:13:02.010Z,-1.77
2018-03-04T04:14:02.259Z,-1.84
2018-03-04T04:15:02.505Z,-1.75
2018-03-04T04:16:02.751Z,-1.77
2018-03-04T04:17:02.995Z,-1.81
2018-03-04T04:18:03.243Z,-1.81
2018-03-04T04:19:03.484Z,-1.80
2018-03-04T04:20:03.740Z,-1.81
2018-03-04T04:21:03.979Z,-1.81
2018-03-04T04:22:04.227Z,-1.74
2018-03-04T04:23:04.472Z,-1.80
2018-03-04T04:24:04.716Z,-1.77
2018-03-04T04:25:04.958Z,-1.82
2018-03-04T04:26:05.201Z,-1.80
2018-03-04T04:27:05.448Z,-1.80
2018-03-04T04:28:05.694Z,-1.77
2018-03-04T04:29:05.941Z,-1.74
2018-03-04T04:30:06.227Z,-1.75
2018-03-04T04:31:06.420Z,-1.80
2018-03-04T04:32:06.663Z,-1.78
2018-03-04T04:33:06.910Z,-1.78
2018-03-04T04:34:07.154Z,-1.81
2018-03-04T04:35:07.399Z,-1.77
2018-03-04T04:36:07.647Z,-1.75
2018-03-04T04:37:07.898Z,-1.85
2018-03-04T04:38:08.145Z,-1.78
2018-03-04T04:39:08.397Z,-1.80
2018-03-04T04:40:08.637Z,-1.80
2018-03-04T04:41:08.883Z,-1.80
2018-03-04T04:42:09.131Z,-1.85
2018-03-04T04:43:09.377Z,-1.88
2018-03-04T04:44:09.619Z,-1.92
2018-03-04T04:45:09.867Z,-1.77
2018-03-04T04:46:10.111Z,-1.84
2018-03-04T04:47:10.350Z,-1.82
2018-03-04T04:48:10.594Z,-1.81
2018-03-04T04:49:10.846Z,-1.82
2018-03-04T04:50:11.089Z,-1.74
2018-03-04T04:51:11.335Z,-1.75
2018-03-04T04:52:11.580Z,-1.81
2018-03-04T04:53:11.822Z,-1.67
2018-03-04T04:54:12.074Z,-1.72
2018-03-04T04:55:12.316Z,-1.74
2018-03-04T04:56:12.562Z,-1.70
2018-03-04T04:57:12.811Z,-1.66
2018-03-04T04:58:13.054Z,-1.74
2018-03-04T04:59:13.302Z,-1.70
2018-03-04T05:00:13.555Z,-1.70
2018-03-04T05:01:13.793Z,-1.67
2018-03-04T05:02:14.042Z,-1.67
2018-03-04T05:03:14.281Z,-1.70
2018-03-04T05:04:14.528Z,-1.67
2018-03-04T05:05:14.767Z,-1.67
2018-03-04T05:06:15.016Z,-1.63
2018-03-04T05:07:15.262Z,-1.62
2018-03-04T05:08:15.504Z,-1.56
2018-03-04T05:09:15.750Z,-1.59
2018-03-04T05:10:16.000Z,-1.70
2018-03-04T05:11:16.247Z,-1.67
2018-03-04T05:12:16.490Z,-1.63
2018-03-04T05:13:16.739Z,-1.67
2018-03-04T05:14:16.984Z,-1.66
2018-03-04T05:15:17.233Z,-1.70
2018-03-04T05:16:17.479Z,-1.67
2018-03-04T05:17:17.728Z,-1.60
2018-03-04T05:18:17.973Z,-1.60
2018-03-04T05:19:18.225Z,-1.57
2018-03-04T05:20:18.472Z,-1.60
2018-03-04T05:21:18.726Z,-1.60
2018-03-04T05:22:18.971Z,-1.60
2018-03-04T05:23:19.218Z,-1.56
2018-03-04T05:24:19.470Z,-1.60
2018-03-04T05:25:19.721Z,-1.59
2018-03-04T05:26:19.962Z,-1.63
2018-03-04T05:27:20.208Z,-1.54
2018-03-04T05:28:20.453Z,-1.49
2018-03-04T05:29:20.701Z,-1.49
2018-03-04T05:30:20.949Z,-1.57
2018-03-04T05:31:21.188Z,-1.53
2018-03-04T05:32:21.443Z,-1.54
2018-03-04T05:33:21.682Z,-1.48
2018-03-04T05:34:21.925Z,-1.57
2018-03-04T05:35:22.162Z,-1.49
2018-03-04T05:36:22.409Z,-1.51
2018-03-04T05:37:22.658Z,-1.49
2018-03-04T05:38:22.899Z,-1.51
2018-03-04T05:39:23.155Z,-1.45
2018-03-04T05:40:23.406Z,-1.51
2018-03-04T05:41:23.670Z,-1.43
2018-03-04T05:42:23.914Z,-1.49
2018-03-04T05:43:24.157Z,-1.49
2018-03-04T05:44:24.403Z,-1.46
2018-03-04T05:45:24.655Z,-1.49
2018-03-04T05:46:24.902Z,-1.51
2018-03-04T05:47:25.146Z,-1.38
2018-03-04T05:48:25.391Z,-1.49
2018-03-04T05:49:25.641Z,-1.41
2018-03-04T05:50:25.883Z,-1.33
2018-03-04T05:51:26.130Z,-1.30
2018-03-04T05:52:26.374Z,-1.33
2018-03-04T05:53:26.642Z,-1.25
2018-03-04T05:54:26.864Z,-1.33
2018-03-04T05:55:27.110Z,-1.28
2018-03-04T05:56:27.352Z,-1.35
2018-03-04T05:57:27.601Z,-1.25
2018-03-04T05:58:27.839Z,-1.38
2018-03-04T05:59:28.081Z,-1.33
2018-03-04T06:00:28.326Z,-1.36
2018-03-04T06:01:28.577Z,-1.39
2018-03-04T06:02:28.818Z,-1.38
2018-03-04T06:03:29.064Z,-1.38
2018-03-04T06:04:29.313Z,-1.33
2018-03-04T06:05:29.557Z,-1.23
2018-03-04T06:06:29.805Z,-1.27
2018-03-04T06:07:30.052Z,-1.27
2018-03-04T06:08:30.297Z,-1.28
2018-03-04T06:09:30.541Z,-1.27
2018-03-04T06:10:30.793Z,-1.23
2018-03-04T06:11:31.033Z,-1.21
2018-03-04T06:12:31.274Z,-1.31
2018-03-04T06:13:31.522Z,-1.24
2018-03-04T06:14:31.768Z,-1.23
2018-03-04T06:15:32.015Z,-1.21
2018-03-04T06:16:32.261Z,-1.25
2018-03-04T06:17:32.511Z,-1.25
2018-03-04T06:18:32.747Z,-1.23
2018-03-04T06:19:32.999Z,-1.12
2018-03-04T06:20:33.246Z,-1.24
2018-03-04T06:21:33.495Z,-1.23
2018-03-04T06:22:33.765Z,-1.15
2018-03-04T06:23:34.013Z,-1.15
2018-03-04T06:24:34.259Z,-1.20
2018-03-04T06:25:34.503Z,-1.21
2018-03-04T06:26:34.749Z,-1.18
2018-03-04T06:27:34.998Z,-1.15
2018-03-04T06:28:35.251Z,-1.10
2018-03-04T06:29:35.490Z,-1.12
2018-03-04T06:30:35.744Z,-1.12
2018-03-04T06:31:35.989Z,-1.20
2018-03-04T06:32:36.237Z,-1.25
2018-03-04T06:33:36.484Z,-1.20
2018-03-04T06:34:36.732Z,-1.20
2018-03-04T06:35:36.979Z,-1.35
2018-03-04T06:36:37.215Z,-1.35
2018-03-04T06:37:37.481Z,-1.21
2018-03-04T06:38:37.728Z,-1.27
2018-03-04T06:39:37.968Z,-1.21
2018-03-04T06:40:38.210Z,-1.20
2018-03-04T06:41:38.452Z,-1.12
2018-03-04T06:42:38.705Z,-1.12
2018-03-04T06:43:38.946Z,-0.99
2018-03-04T06:44:39.196Z,-1.03
2018-03-04T06:45:39.443Z,-1.00
2018-03-04T06:46:39.692Z,-0.97
2018-03-04T06:47:39.941Z,-0.99
2018-03-04T06:48:40.184Z,-0.94
2018-03-04T06:49:40.431Z,-0.92
2018-03-04T06:50:40.678Z,-0.92
2018-03-04T06:51:40.919Z,-0.95
2018-03-04T06:52:41.169Z,-0.89
2018-03-04T06:53:41.412Z,-0.89
2018-03-04T06:54:41.661Z,-0.84
2018-03-04T06:55:41.906Z,-0.80
2018-03-04T06:56:42.154Z,-0.81
2018-03-04T06:57:42.402Z,-0.91
2018-03-04T06:58:42.648Z,-0.87
2018-03-04T06:59:42.894Z,-0.70
2018-03-04T07:00:43.139Z,-0.72
2018-03-04T07:01:43.392Z,-0.68
2018-03-04T07:02:43.642Z,-0.77
2018-03-04T07:03:43.891Z,-0.75
2018-03-04T07:04:44.135Z,-0.62
2018-03-04T07:05:44.370Z,-0.63
2018-03-04T07:06:44.613Z,-0.75
2018-03-04T07:07:44.855Z,-0.65
2018-03-04T07:08:45.102Z,-0.68
2018-03-04T07:09:45.352Z,-0.59
2018-03-04T07:10:45.593Z,-0.60
2018-03-04T07:11:45.839Z,-0.57
2018-03-04T07:12:46.087Z,-0.57
2018-03-04T07:13:46.333Z,-0.63
2018-03-04T07:14:46.580Z,-0.68
2018-03-04T07:15:46.824Z,-0.52
2018-03-04T07:16:47.074Z,-0.54
2018-03-04T07:17:47.322Z,-0.54
2018-03-04T07:18:47.571Z,-0.59
2018-03-04T07:19:47.821Z,-0.63
2018-03-04T07:20:48.069Z,-0.60
2018-03-04T07:21:48.317Z,-0.47
2018-03-04T07:22:48.560Z,-0.50
2018-03-04T07:23:48.804Z,-0.51
2018-03-04T07:24:49.054Z,-0.55
2018-03-04T07:25:49.308Z,-0.36
2018-03-04T07:26:49.546Z,-0.47
2018-03-04T07:27:49.794Z,-0.50
2018-03-04T07:28:50.059Z,-0.39
2018-03-04T07:29:50.303Z,-0.39
2018-03-04T07:30:50.553Z,-0.33
2018-03-04T07:31:50.800Z,-0.27
2018-03-04T07:32:51.044Z,-0.23
2018-03-04T07:33:51.292Z,-0.33
2018-03-04T07:34:51.542Z,-0.27
2018-03-04T07:35:51.788Z,-0.18
2018-03-04T07:36:52.031Z,-0.19
2018-03-04T07:37:52.276Z,-0.16
2018-03-04T07:38:52.527Z,-0.22
2018-03-04T07:39:52.768Z,-0.11
2018-03-04T07:40:53.025Z,-0.06
2018-03-04T07:41:53.270Z,-0.04
2018-03-04T07:42:53.514Z,-0.08
2018-03-04T07:43:53.763Z,-0.05
2018-03-04T07:44:54.008Z,-0.04
2018-03-04T07:45:54.258Z,-0.08
2018-03-04T07:46:54.512Z,0.03
2018-03-04T07:47:54.752Z,-0.01
2018-03-04T07:48:55.015Z,0.07
2018-03-04T07:49:55.259Z,0.06
2018-03-04T07:50:55.508Z,0.05
2018-03-04T07:51:55.744Z,0.03
2018-03-04T07:52:55.996Z,0.09
2018-03-04T07:53:56.246Z,0.00
2018-03-04T07:54:56.496Z,0.05
2018-03-04T07:55:56.749Z,0.09
2018-03-04T07:56:56.998Z,0.21
2018-03-04T07:57:57.245Z,0.09
2018-03-04T07:58:57.493Z,0.15
2018-03-04T07:59:57.741Z,0.15
2018-03-04T08:00:57.990Z,0.20
2018-03-04T08:01:58.238Z,0.12
2018-03-04T08:02:58.492Z,0.20
2018-03-04T08:03:58.736Z,0.21
2018-03-04T08:04:58.985Z,0.21
2018-03-04T08:05:59.228Z,0.21
2018-03-04T08:06:59.475Z,0.25
2018-03-04T08:07:59.735Z,0.25
2018-03-04T08:08:59.966Z,0.30
2018-03-04T08:10:00.250Z,0.33
2018-03-04T08:11:00.477Z,0.30
2018-03-04T08:12:00.728Z,0.41
2018-03-04T08:13:00.969Z,0.36
2018-03-04T08:14:01.223Z,0.39
2018-03-04T08:15:01.470Z,0.43
2018-03-04T08:16:01.712Z,0.42
2018-03-04T08:17:01.971Z,0.39
2018-03-04T08:18:02.219Z,0.36
2018-03-04T08:19:02.473Z,0.45
2018-03-04T08:20:02.712Z,0.45
2018-03-04T08:21:02.962Z,0.43
2018-03-04T08:22:03.208Z,0.48
2018-03-04T08:23:03.449Z,0.60
2018-03-04T08:24:03.706Z,0.61
2018-03-04T08:25:03.949Z,0.53
2018-03-04T08:26:04.201Z,0.58
2018-03-04T08:27:04.447Z,0.58
2018-03-04T08:28:04.694Z,0.52
2018-03-04T08:29:04.939Z,0.60
2018-03-04T08:30:05.189Z,0.67
2018-03-04T08:31:05.438Z,0.71
2018-03-04T08:32:05.687Z,0.71
2018-03-04T08:33:05.923Z,0.75
2018-03-04T08:34:06.175Z,0.89
2018-03-04T08:35:06.422Z,0.97
2018-03-04T08:36:06.669Z,1.00
2018-03-04T08:37:06.922Z,1.03
2018-03-04T08:38:07.162Z,1.15
2018-03-04T08:39:07.419Z,1.04
2018-03-04T08:40:07.667Z,1.12
2018-03-04T08:41:07.916Z,1.19
2018-03-04T08:42:08.166Z,1.28
2018-03-04T08:43:08.416Z,1.22
2018-03-04T08:44:08.666Z,1.19
2018-03-04T08:45:08.938Z,1.25
2018-03-04T08:46:09.173Z,1.18
2018-03-04T08:47:09.415Z,1.24
2018-03-04T08:48:09.661Z,1.12
2018-03-04T08:49:09.917Z,1.16
2018-03-04T08:50:10.161Z,1.25
2018-03-04T08:51:10.414Z,1.10
2018-03-04T08:52:10.669Z,1.12
2018-03-04T08:53:10.918Z,1.15
2018-03-04T08:54:11.169Z,1.14
2018-03-04T08:55:11.418Z,1.16
2018-03-04T08:56:11.670Z,1.26
2018-03-04T08:57:11.912Z,1.22
2018-03-04T08:58:12.167Z,1.24
2018-03-04T08:59:12.417Z,1.25
2018-03-04T09:00:12.678Z,1.36
2018-03-04T09:01:12.925Z,1.40
2018-03-04T09:02:13.213Z,1.50
2018-03-04T09:03:13.412Z,1.40
2018-03-04T09:04:13.662Z,1.60
2018-03-04T09:05:13.911Z,1.57
2018-03-04T09:06:14.160Z,1.65
2018-03-04T09:07:14.412Z,1.61
2018-03-04T09:08:14.662Z,1.65
2018-03-04T09:09:14.925Z,1.80
2018-03-04T09:10:15.152Z,1.82
2018-03-04T09:11:15.391Z,1.93
2018-03-04T09:12:15.662Z,1.82
2018-03-04T09:13:15.909Z,1.87
2018-03-04T09:14:16.162Z,1.98
2018-03-04T09:15:16.409Z,2.01
2018-03-04T09:16:16.659Z,2.06
2018-03-04T09:17:16.918Z,2.12
2018-03-04T09:18:17.168Z,2.17
2018-03-04T09:19:17.418Z,2.28
2018-03-04T09:20:17.669Z,2.20
2018-03-04T09:21:17.918Z,2.09
2018-03-04T09:22:18.170Z,2.09
2018-03-04T09:23:18.476Z,2.22
2018-03-04T09:24:18.660Z,2.30
2018-03-04T09:25:18.901Z,2.23
2018-03-04T09:26:19.164Z,2.30
2018-03-04T09:27:19.411Z,2.26
2018-03-04T09:28:19.662Z,2.45
2018-03-04T09:29:19.910Z,2.58
2018-03-04T09:30:20.162Z,2.70
2018-03-04T09:31:20.409Z,2.81
2018-03-04T09:32:20.662Z,2.97
2018-03-04T09:33:20.913Z,3.00
2018-03-04T09:34:21.160Z,3.15
2018-03-04T09:35:21.408Z,3.16
2018-03-04T09:36:21.665Z,3.25
2018-03-04T09:37:21.911Z,3.28
2018-03-04T09:38:22.167Z,3.40
2018-03-04T09:39:22.414Z,3.34
2018-03-04T09:40:22.661Z,3.43
2018-03-04T09:41:22.911Z,3.47
2018-03-04T09:42:23.161Z,3.57
2018-03-04T09:43:23.416Z,3.46
2018-03-04T09:44:23.665Z,3.46
2018-03-04T09:45:23.933Z,3.47
2018-03-04T09:46:24.183Z,3.50
2018-03-04T09:47:24.432Z,3.65
2018-03-04T09:48:24.684Z,3.65
2018-03-04T09:49:24.937Z,3.67
2018-03-04T09:50:25.190Z,3.78
2018-03-04T09:51:25.439Z,3.83
2018-03-04T09:52:25.688Z,3.80
2018-03-04T09:53:25.940Z,3.86
2018-03-04T09:54:26.206Z,3.82
2018-03-04T09:55:26.454Z,3.86
2018-03-04T09:56:26.708Z,3.85
2018-03-04T09:57:26.958Z,3.94
2018-03-04T09:58:27.216Z,3.90
2018-03-04T09:59:27.476Z,4.04
2018-03-04T10:00:27.724Z,3.88
2018-03-04T10:01:27.976Z,3.70
2018-03-04T10:02:28.230Z,3.62
2018-03-04T10:03:28.481Z,3.70
2018-03-04T10:04:28.729Z,3.82
2018-03-04T10:05:28.979Z,3.94
2018-03-04T10:06:29.229Z,3.90
2018-03-04T10:07:29.479Z,4.03
2018-03-04T10:08:29.736Z,4.19
2018-03-04T10:09:29.986Z,4.28
2018-03-04T10:10:30.236Z,4.32
2018-03-04T10:11:30.488Z,4.42
2018-03-04T10:12:30.738Z,4.52
2018-03-04T10:13:30.992Z,4.58
2018-03-04T10:14:31.245Z,4.59
2018-03-04T10:15:31.498Z,4.75
2018-03-04T10:16:31.750Z,4.75
2018-03-04T10:17:31.999Z,4.80
2018-03-04T10:18:32.251Z,4.91
2018-03-04T10:19:32.501Z,4.86
2018-03-04T10:20:32.756Z,5.01
2018-03-04T10:21:32.991Z,5.01
2018-03-04T10:22:33.256Z,4.99
2018-03-04T10:23:33.509Z,5.02
2018-03-04T10:24:33.762Z,4.99
2018-03-04T10:25:34.019Z,5.09
2018-03-04T10:26:34.265Z,5.09
2018-03-04T10:27:34.517Z,5.16
2018-03-04T10:28:34.774Z,5.10
2018-03-04T10:29:35.023Z,5.04
2018-03-04T10:30:35.281Z,5.07
2018-03-04T10:31:35.526Z,5.13
2018-03-04T10:32:35.780Z,5.22
2018-03-04T10:33:36.033Z,5.25
2018-03-04T10:34:36.283Z,5.30
2018-03-04T10:35:36.533Z,5.31
2018-03-04T10:36:36.787Z,5.37
2018-03-04T10:37:37.039Z,5.45
2018-03-04T10:38:37.291Z,5.31
2018-03-04T10:39:37.541Z,5.30
2018-03-04T10:40:37.797Z,5.30
2018-03-04T10:41:38.053Z,5.31
2018-03-04T10:42:38.306Z,5.28
2018-03-04T10:43:38.563Z,5.25
2018-03-04T10:44:38.815Z,5.23
2018-03-04T10:45:39.067Z,5.23
2018-03-04T10:46:39.324Z,5.14
2018-03-04T10:47:39.577Z,5.17
2018-03-04T10:48:39.830Z,5.09
2018-03-04T10:49:40.083Z,5.07
2018-03-04T10:50:40.335Z,5.10
2018-03-04T10:51:40.592Z,5.10
2018-03-04T10:52:40.844Z,5.19
2018-03-04T10:53:41.097Z,5.17
2018-03-04T10:54:41.351Z,5.17
2018-03-04T10:55:41.607Z,5.25
2018-03-04T10:56:41.858Z,5.20
2018-03-04T10:57:42.112Z,5.34
2018-03-04T10:58:42.430Z,5.30
2018-03-04T10:59:42.622Z,5.28
2018-03-04T11:00:42.877Z,5.25
2018-03-04T11:04:16.491Z,5.20
2018-03-04T11:05:16.750Z,5.19
2018-03-04T11:06:17.003Z,5.32
2018-03-04T11:07:17.258Z,5.32
2018-03-04T11:08:17.510Z,5.31
2018-03-04T11:09:17.767Z,5.45
2018-03-04T11:10:18.015Z,5.41
2018-03-04T11:11:18.282Z,5.41
2018-03-04T11:12:18.521Z,5.38
2018-03-04T11:13:18.775Z,5.37
2018-03-04T11:14:19.030Z,5.49
2018-03-04T11:15:19.343Z,5.49
2018-03-04T11:16:19.537Z,5.53
2018-03-04T11:17:19.785Z,5.56
2018-03-04T11:18:20.038Z,5.66
2018-03-04T11:19:20.290Z,5.45
2018-03-04T11:20:20.543Z,5.49
2018-03-04T11:21:20.795Z,5.53
2018-03-04T11:22:21.050Z,5.55
2018-03-04T11:23:21.319Z,5.52
2018-03-04T11:24:21.571Z,5.60
2018-03-04T11:25:21.829Z,5.55
2018-03-04T11:26:22.080Z,5.71
2018-03-04T11:27:22.332Z,5.74
2018-03-04T11:28:22.587Z,5.81
2018-03-04T11:29:22.838Z,5.89
2018-03-04T11:30:23.075Z,5.85
2018-03-04T11:31:23.337Z,5.85
2018-03-04T11:32:23.589Z,5.89
2018-03-04T11:33:23.848Z,5.91
2018-03-04T11:34:24.105Z,5.86
2018-03-04T11:35:24.354Z,5.92
2018-03-04T11:36:24.609Z,5.93
2018-03-04T11:37:24.859Z,5.98
2018-03-04T11:38:25.115Z,5.96
2018-03-04T11:39:25.365Z,6.01
2018-03-04T11:40:25.619Z,6.01
2018-03-04T11:41:25.872Z,5.98
2018-03-04T11:42:26.127Z,6.03
2018-03-04T11:43:26.377Z,6.11
2018-03-04T11:44:26.657Z,6.19
2018-03-04T11:45:26.910Z,6.25
2018-03-04T11:46:28.901Z,6.28
2018-03-04T11:47:27.406Z,6.28
2018-03-04T11:48:27.678Z,6.35
2018-03-04T11:49:27.927Z,6.36
2018-03-04T11:50:28.182Z,6.38
2018-03-04T11:51:28.435Z,6.35
2018-03-04T11:52:28.694Z,6.41
2018-03-04T11:53:28.948Z,6.56
2018-03-04T11:54:29.209Z,6.61
2018-03-04T11:55:29.461Z,6.61
2018-03-04T11:56:29.723Z,6.69
2018-03-04T11:57:29.996Z,6.62
2018-03-04T11:58:30.228Z,6.79
2018-03-04T11:59:30.492Z,6.83
2018-03-04T12:00:30.751Z,6.83
2018-03-04T12:01:31.005Z,6.91
2018-03-04T12:02:31.252Z,6.90
2018-03-04T12:03:31.511Z,6.98
2018-03-04T12:04:31.766Z,6.97
2018-03-04T12:05:32.020Z,6.91
2018-03-04T12:06:32.278Z,6.97
2018-03-04T12:10:05.864Z,6.73
2018-03-04T12:11:06.122Z,6.66
2018-03-04T12:12:06.371Z,6.51
2018-03-04T12:13:06.625Z,6.76
2018-03-04T12:14:06.877Z,6.68
2018-03-04T12:15:07.127Z,6.65
2018-03-04T12:16:07.376Z,6.65
2018-03-04T12:17:07.631Z,6.59
2018-03-04T12:18:07.880Z,6.46
2018-03-04T12:19:08.132Z,6.36
2018-03-04T12:20:08.387Z,6.38
2018-03-04T12:21:08.643Z,6.33
2018-03-04T12:22:08.896Z,6.40
2018-03-04T12:23:09.137Z,6.53
2018-03-04T12:24:09.392Z,6.53
2018-03-04T12:25:09.636Z,6.63
2018-03-04T12:26:09.888Z,6.72
2018-03-04T12:27:10.141Z,6.81
2018-03-04T12:28:10.389Z,6.79
2018-03-04T12:29:10.644Z,6.91
2018-03-04T12:30:10.894Z,6.97
2018-03-04T12:31:11.169Z,7.05
2018-03-04T12:32:11.449Z,6.97
2018-03-04T12:33:11.682Z,6.98
2018-03-04T12:34:11.942Z,7.05
2018-03-04T12:35:12.178Z,6.99
2018-03-04T12:36:12.474Z,6.95
2018-03-04T12:37:12.713Z,6.99
2018-03-04T12:38:12.941Z,6.98
2018-03-04T12:39:13.174Z,7.01
2018-03-04T12:40:13.430Z,7.01
2018-03-04T12:41:13.693Z,7.13
2018-03-04T12:42:13.953Z,7.07
2018-03-04T12:43:14.169Z,7.15
2018-03-04T12:44:14.441Z,7.12
2018-03-04T12:45:14.656Z,7.07
2018-03-04T12:46:14.904Z,7.09
2018-03-04T12:47:15.137Z,7.07
2018-03-04T12:48:15.386Z,6.98
2018-03-04T12:49:15.631Z,6.91
2018-03-04T12:50:15.903Z,7.17
2018-03-04T12:51:16.935Z,7.13
2018-03-04T12:52:16.502Z,7.15
2018-03-04T12:53:16.756Z,7.23
2018-03-04T12:54:17.006Z,7.37
2018-03-04T12:55:17.257Z,7.49
2018-03-04T12:56:17.514Z,7.37
2018-03-04T12:57:17.766Z,7.34
2018-03-04T12:58:18.010Z,7.31
2018-03-04T12:59:18.290Z,7.38
2018-03-04T13:00:18.524Z,7.34
2018-03-04T13:01:18.814Z,7.42
2018-03-04T13:02:19.015Z,7.38
2018-03-04T13:03:19.274Z,7.38
2018-03-04T13:04:19.513Z,7.41
2018-03-04T13:05:19.788Z,7.37
2018-03-04T13:06:20.055Z,7.22
2018-03-04T13:07:20.288Z,7.29
2018-03-04T13:08:20.534Z,7.20
2018-03-04T13:09:20.786Z,7.22
2018-03-04T13:10:21.031Z,7.19